sensor_id;sensor_type;location;lat;lon;timestamp;temperature;humidity
21207;DHT22;10761;48.532;8.026;2024-02-15T00:01:54;12.40;1.00
21207;DHT22;10761;48.532;8.026;2024-02-15T00:04:20;12.40;1.00
21207;DHT22;10761;48.532;8.026;2024-02-15T00:06:45;12.30;1.00
21207;DHT22;10761;48.532;8.026;2024-02-15T00:09:11;12.20;1.00
21207;DHT22;10761;48.532;8.026;2024-02-15T00:11:36;12.20;1.00
21207;DHT22;10761;48.532;8.026;2024-02-15T00:14:04;12.10;1.00
21207;DHT22;10761;48.532;8.026;2024-02-15T00:16:30;12.00;1.00
21207;DHT22;10761;48.532;8.026;2024-02-15T00:18:55;11.90;1.00
21207;DHT22;10761;48.532;8.026;2024-02-15T00:21:22;11.70;1.00
21207;DHT22;10761;48.532;8.026;2024-02-15T00:23:51;11.60;1.00
21207;DHT22;10761;48.532;8.026;2024-02-15T00:26:21;11.40;1.00
21207;DHT22;10761;48.532;8.026;2024-02-15T00:28:46;11.40;1.00
21207;DHT22;10761;48.532;8.026;2024-02-15T00:31:13;11.30;1.00
21207;DHT22;10761;48.532;8.026;2024-02-15T00:33:38;11.20;1.00
21207;DHT22;10761;48.532;8.026;2024-02-15T00:36:04;11.00;1.00
21207;DHT22;10761;48.532;8.026;2024-02-15T00:38:34;10.90;1.00
21207;DHT22;10761;48.532;8.026;2024-02-15T00:41:00;10.70;6.90
21207;DHT22;10761;48.532;8.026;2024-02-15T00:43:28;10.60;99.90
21207;DHT22;10761;48.532;8.026;2024-02-15T00:45:54;10.50;99.90
21207;DHT22;10761;48.532;8.026;2024-02-15T00:48:20;10.40;99.90
21207;DHT22;10761;48.532;8.026;2024-02-15T00:50:45;10.50;99.90
21207;DHT22;10761;48.532;8.026;2024-02-15T00:53:11;10.40;99.90
21207;DHT22;10761;48.532;8.026;2024-02-15T00:55:36;10.30;99.90
21207;DHT22;10761;48.532;8.026;2024-02-15T00:58:02;10.20;99.90
21207;DHT22;10761;48.532;8.026;2024-02-15T01:00:28;10.20;99.90
21207;DHT22;10761;48.532;8.026;2024-02-15T01:02:55;10.20;99.90
21207;DHT22;10761;48.532;8.026;2024-02-15T01:05:20;10.20;99.90
21207;DHT22;10761;48.532;8.026;2024-02-15T01:07:47;10.10;99.90
21207;DHT22;10761;48.532;8.026;2024-02-15T01:10:16;10.10;99.90
21207;DHT22;10761;48.532;8.026;2024-02-15T01:12:41;10.10;99.90
21207;DHT22;10761;48.532;8.026;2024-02-15T01:15:07;10.00;99.90
21207;DHT22;10761;48.532;8.026;2024-02-15T01:17:33;10.00;99.90
21207;DHT22;10761;48.532;8.026;2024-02-15T01:19:58;10.00;99.90
21207;DHT22;10761;48.532;8.026;2024-02-15T01:22:24;9.90;99.90
21207;DHT22;10761;48.532;8.026;2024-02-15T01:24:52;9.80;99.90
21207;DHT22;10761;48.532;8.026;2024-02-15T01:27:18;9.80;99.90
21207;DHT22;10761;48.532;8.026;2024-02-15T01:29:43;9.80;99.90
21207;DHT22;10761;48.532;8.026;2024-02-15T01:32:09;9.70;99.90
21207;DHT22;10761;48.532;8.026;2024-02-15T01:34:35;9.70;99.90
21207;DHT22;10761;48.532;8.026;2024-02-15T01:37:00;9.70;99.90
21207;DHT22;10761;48.532;8.026;2024-02-15T01:39:26;9.70;99.90
21207;DHT22;10761;48.532;8.026;2024-02-15T01:41:52;9.70;99.90
21207;DHT22;10761;48.532;8.026;2024-02-15T01:44:21;9.70;99.90
21207;DHT22;10761;48.532;8.026;2024-02-15T01:46:50;9.70;99.90
21207;DHT22;10761;48.532;8.026;2024-02-15T01:49:17;9.70;99.90
21207;DHT22;10761;48.532;8.026;2024-02-15T01:51:44;9.70;99.90
21207;DHT22;10761;48.532;8.026;2024-02-15T01:54:13;9.60;99.90
21207;DHT22;10761;48.532;8.026;2024-02-15T01:56:42;9.60;99.90
21207;DHT22;10761;48.532;8.026;2024-02-15T01:59:09;9.60;99.90
21207;DHT22;10761;48.532;8.026;2024-02-15T02:01:35;9.60;99.90
21207;DHT22;10761;48.532;8.026;2024-02-15T02:04:01;9.60;99.90
21207;DHT22;10761;48.532;8.026;2024-02-15T02:06:28;9.50;99.90
21207;DHT22;10761;48.532;8.026;2024-02-15T02:08:55;9.40;99.90
21207;DHT22;10761;48.532;8.026;2024-02-15T02:11:22;9.40;99.90
21207;DHT22;10761;48.532;8.026;2024-02-15T02:13:48;9.30;99.90
21207;DHT22;10761;48.532;8.026;2024-02-15T02:16:29;9.20;99.90
21207;DHT22;10761;48.532;8.026;2024-02-15T02:22:10;9.20;99.90
21207;DHT22;10761;48.532;8.026;2024-02-15T02:27:22;9.20;99.90
21207;DHT22;10761;48.532;8.026;2024-02-15T02:29:48;9.20;99.90
21207;DHT22;10761;48.532;8.026;2024-02-15T02:32:14;9.20;99.90
21207;DHT22;10761;48.532;8.026;2024-02-15T02:34:39;9.10;99.90
21207;DHT22;10761;48.532;8.026;2024-02-15T02:37:08;9.10;99.90
21207;DHT22;10761;48.532;8.026;2024-02-15T02:39:34;9.10;99.90
21207;DHT22;10761;48.532;8.026;2024-02-15T02:42:00;9.10;99.90
21207;DHT22;10761;48.532;8.026;2024-02-15T02:44:26;9.20;99.90
21207;DHT22;10761;48.532;8.026;2024-02-15T02:46:51;9.20;99.90
21207;DHT22;10761;48.532;8.026;2024-02-15T02:49:17;9.30;99.90
21207;DHT22;10761;48.532;8.026;2024-02-15T02:51:42;9.40;99.90
21207;DHT22;10761;48.532;8.026;2024-02-15T02:54:08;9.30;99.90
21207;DHT22;10761;48.532;8.026;2024-02-15T02:56:34;9.20;99.90
21207;DHT22;10761;48.532;8.026;2024-02-15T02:58:59;9.10;99.90
21207;DHT22;10761;48.532;8.026;2024-02-15T03:01:25;9.00;99.90
21207;DHT22;10761;48.532;8.026;2024-02-15T03:03:55;9.00;99.90
21207;DHT22;10761;48.532;8.026;2024-02-15T03:06:24;9.00;99.90
21207;DHT22;10761;48.532;8.026;2024-02-15T03:08:53;8.80;99.90
21207;DHT22;10761;48.532;8.026;2024-02-15T03:11:23;8.70;99.90
21207;DHT22;10761;48.532;8.026;2024-02-15T03:13:48;8.60;99.90
21207;DHT22;10761;48.532;8.026;2024-02-15T03:16:14;8.50;99.90
21207;DHT22;10761;48.532;8.026;2024-02-15T03:18:42;8.40;99.90
21207;DHT22;10761;48.532;8.026;2024-02-15T03:21:08;8.40;99.90
21207;DHT22;10761;48.532;8.026;2024-02-15T03:23:37;8.30;99.90
21207;DHT22;10761;48.532;8.026;2024-02-15T03:26:03;8.30;99.90
21207;DHT22;10761;48.532;8.026;2024-02-15T03:28:31;8.20;99.90
21207;DHT22;10761;48.532;8.026;2024-02-15T03:30:57;8.20;99.90
21207;DHT22;10761;48.532;8.026;2024-02-15T03:33:22;8.20;99.90
21207;DHT22;10761;48.532;8.026;2024-02-15T03:35:51;8.10;99.90
21207;DHT22;10761;48.532;8.026;2024-02-15T03:38:17;8.00;99.90
21207;DHT22;10761;48.532;8.026;2024-02-15T03:40:43;7.90;99.90
21207;DHT22;10761;48.532;8.026;2024-02-15T03:43:08;7.80;99.90
21207;DHT22;10761;48.532;8.026;2024-02-15T03:45:34;7.80;99.90
21207;DHT22;10761;48.532;8.026;2024-02-15T03:48:00;7.80;99.90
21207;DHT22;10761;48.532;8.026;2024-02-15T03:50:25;7.70;99.90
21207;DHT22;10761;48.532;8.026;2024-02-15T03:52:51;7.60;99.90
21207;DHT22;10761;48.532;8.026;2024-02-15T03:55:17;7.60;99.90
21207;DHT22;10761;48.532;8.026;2024-02-15T03:57:43;7.80;99.90
21207;DHT22;10761;48.532;8.026;2024-02-15T04:00:12;7.80;99.90
21207;DHT22;10761;48.532;8.026;2024-02-15T04:02:39;7.80;99.90
21207;DHT22;10761;48.532;8.026;2024-02-15T04:05:09;7.80;99.90
21207;DHT22;10761;48.532;8.026;2024-02-15T04:07:36;7.70;99.90
21207;DHT22;10761;48.532;8.026;2024-02-15T04:10:04;7.60;99.90
21207;DHT22;10761;48.532;8.026;2024-02-15T04:12:30;7.60;99.90
21207;DHT22;10761;48.532;8.026;2024-02-15T04:14:56;7.50;99.90
21207;DHT22;10761;48.532;8.026;2024-02-15T04:17:25;7.50;99.90
21207;DHT22;10761;48.532;8.026;2024-02-15T04:19:51;7.70;99.90
21207;DHT22;10761;48.532;8.026;2024-02-15T04:22:18;7.90;99.90
21207;DHT22;10761;48.532;8.026;2024-02-15T04:24:44;8.00;99.90
21207;DHT22;10761;48.532;8.026;2024-02-15T04:27:11;8.00;99.90
21207;DHT22;10761;48.532;8.026;2024-02-15T04:29:40;8.00;99.90
21207;DHT22;10761;48.532;8.026;2024-02-15T04:32:09;8.00;99.90
21207;DHT22;10761;48.532;8.026;2024-02-15T04:34:39;8.00;99.90
21207;DHT22;10761;48.532;8.026;2024-02-15T04:37:04;8.00;99.90
21207;DHT22;10761;48.532;8.026;2024-02-15T04:39:34;8.10;99.90
21207;DHT22;10761;48.532;8.026;2024-02-15T04:42:03;8.10;99.90
21207;DHT22;10761;48.532;8.026;2024-02-15T04:44:31;8.10;99.90
21207;DHT22;10761;48.532;8.026;2024-02-15T04:47:01;8.10;99.90
21207;DHT22;10761;48.532;8.026;2024-02-15T04:49:27;8.30;99.90
21207;DHT22;10761;48.532;8.026;2024-02-15T04:51:54;8.60;99.90
21207;DHT22;10761;48.532;8.026;2024-02-15T04:54:20;8.90;99.90
21207;DHT22;10761;48.532;8.026;2024-02-15T04:56:45;8.80;99.90
21207;DHT22;10761;48.532;8.026;2024-02-15T04:59:11;8.80;99.90
21207;DHT22;10761;48.532;8.026;2024-02-15T05:01:47;8.70;99.90
21207;DHT22;10761;48.532;8.026;2024-02-15T05:04:12;8.70;99.90
21207;DHT22;10761;48.532;8.026;2024-02-15T05:06:39;8.70;99.90
21207;DHT22;10761;48.532;8.026;2024-02-15T05:09:05;8.90;99.90
21207;DHT22;10761;48.532;8.026;2024-02-15T05:11:37;9.00;99.90
21207;DHT22;10761;48.532;8.026;2024-02-15T05:14:03;9.00;99.90
21207;DHT22;10761;48.532;8.026;2024-02-15T05:16:35;9.10;99.90
21207;DHT22;10761;48.532;8.026;2024-02-15T05:19:07;9.10;99.90
21207;DHT22;10761;48.532;8.026;2024-02-15T05:21:33;9.10;99.90
21207;DHT22;10761;48.532;8.026;2024-02-15T05:23:59;9.10;99.90
21207;DHT22;10761;48.532;8.026;2024-02-15T05:26:24;9.10;99.90
21207;DHT22;10761;48.532;8.026;2024-02-15T05:28:50;9.10;99.90
21207;DHT22;10761;48.532;8.026;2024-02-15T05:31:19;9.10;99.90
21207;DHT22;10761;48.532;8.026;2024-02-15T05:33:46;9.10;99.90
21207;DHT22;10761;48.532;8.026;2024-02-15T05:36:20;9.10;99.90
21207;DHT22;10761;48.532;8.026;2024-02-15T05:38:49;9.10;99.90
21207;DHT22;10761;48.532;8.026;2024-02-15T05:41:15;9.10;99.90
21207;DHT22;10761;48.532;8.026;2024-02-15T05:43:41;9.20;99.90
21207;DHT22;10761;48.532;8.026;2024-02-15T05:46:08;9.20;99.90
21207;DHT22;10761;48.532;8.026;2024-02-15T05:48:34;9.30;99.90
21207;DHT22;10761;48.532;8.026;2024-02-15T05:51:01;9.40;99.90
21207;DHT22;10761;48.532;8.026;2024-02-15T05:53:27;9.50;99.90
21207;DHT22;10761;48.532;8.026;2024-02-15T05:55:53;9.60;99.90
21207;DHT22;10761;48.532;8.026;2024-02-15T05:58:18;9.60;99.90
21207;DHT22;10761;48.532;8.026;2024-02-15T06:00:44;9.60;99.90
21207;DHT22;10761;48.532;8.026;2024-02-15T06:03:13;9.60;99.90
21207;DHT22;10761;48.532;8.026;2024-02-15T06:05:38;9.60;99.90
21207;DHT22;10761;48.532;8.026;2024-02-15T06:08:05;9.60;99.90
21207;DHT22;10761;48.532;8.026;2024-02-15T06:10:31;9.70;99.90
21207;DHT22;10761;48.532;8.026;2024-02-15T06:12:57;9.80;99.90
21207;DHT22;10761;48.532;8.026;2024-02-15T06:15:24;9.90;99.90
21207;DHT22;10761;48.532;8.026;2024-02-15T06:17:50;10.00;99.90
21207;DHT22;10761;48.532;8.026;2024-02-15T06:20:16;10.00;99.90
21207;DHT22;10761;48.532;8.026;2024-02-15T06:22:46;10.10;99.90
21207;DHT22;10761;48.532;8.026;2024-02-15T06:25:12;10.10;99.90
21207;DHT22;10761;48.532;8.026;2024-02-15T06:27:38;10.20;99.90
21207;DHT22;10761;48.532;8.026;2024-02-15T06:30:09;10.30;99.90
21207;DHT22;10761;48.532;8.026;2024-02-15T06:32:53;10.40;84.80
21207;DHT22;10761;48.532;8.026;2024-02-15T06:35:38;10.50;22.40
21207;DHT22;10761;48.532;8.026;2024-02-15T06:38:23;10.60;1.00
21207;DHT22;10761;48.532;8.026;2024-02-15T06:41:08;10.60;1.00
21207;DHT22;10761;48.532;8.026;2024-02-15T06:43:35;10.60;1.00
21207;DHT22;10761;48.532;8.026;2024-02-15T06:46:01;10.70;1.00
21207;DHT22;10761;48.532;8.026;2024-02-15T06:48:27;10.70;1.00
21207;DHT22;10761;48.532;8.026;2024-02-15T06:50:52;10.70;1.00
21207;DHT22;10761;48.532;8.026;2024-02-15T06:53:18;10.80;1.00
21207;DHT22;10761;48.532;8.026;2024-02-15T06:55:46;10.70;1.00
21207;DHT22;10761;48.532;8.026;2024-02-15T06:58:17;10.70;1.00
21207;DHT22;10761;48.532;8.026;2024-02-15T07:00:43;10.80;1.00
21207;DHT22;10761;48.532;8.026;2024-02-15T07:03:09;10.80;1.00
21207;DHT22;10761;48.532;8.026;2024-02-15T07:05:36;10.70;1.00
21207;DHT22;10761;48.532;8.026;2024-02-15T07:08:04;10.70;1.00
21207;DHT22;10761;48.532;8.026;2024-02-15T07:10:30;10.70;1.00
21207;DHT22;10761;48.532;8.026;2024-02-15T07:12:57;10.70;1.00
21207;DHT22;10761;48.532;8.026;2024-02-15T07:15:22;10.80;1.00
21207;DHT22;10761;48.532;8.026;2024-02-15T07:17:48;10.80;1.00
21207;DHT22;10761;48.532;8.026;2024-02-15T07:20:14;10.80;1.00
21207;DHT22;10761;48.532;8.026;2024-02-15T07:22:43;10.90;1.00
21207;DHT22;10761;48.532;8.026;2024-02-15T07:25:09;10.90;1.00
21207;DHT22;10761;48.532;8.026;2024-02-15T07:27:35;10.90;1.00
21207;DHT22;10761;48.532;8.026;2024-02-15T07:30:02;10.80;1.00
21207;DHT22;10761;48.532;8.026;2024-02-15T07:32:29;10.80;1.00
21207;DHT22;10761;48.532;8.026;2024-02-15T07:34:57;10.80;1.00
21207;DHT22;10761;48.532;8.026;2024-02-15T07:37:22;10.80;1.00
21207;DHT22;10761;48.532;8.026;2024-02-15T07:39:51;10.90;1.00
21207;DHT22;10761;48.532;8.026;2024-02-15T07:42:17;11.00;1.00
21207;DHT22;10761;48.532;8.026;2024-02-15T07:44:43;11.00;1.00
21207;DHT22;10761;48.532;8.026;2024-02-15T07:47:08;11.10;1.00
21207;DHT22;10761;48.532;8.026;2024-02-15T07:49:36;11.20;1.00
21207;DHT22;10761;48.532;8.026;2024-02-15T07:52:02;11.30;1.00
21207;DHT22;10761;48.532;8.026;2024-02-15T07:54:32;11.30;1.00
21207;DHT22;10761;48.532;8.026;2024-02-15T07:56:59;11.40;1.00
21207;DHT22;10761;48.532;8.026;2024-02-15T07:59:24;11.60;1.00
21207;DHT22;10761;48.532;8.026;2024-02-15T08:01:50;11.70;1.00
21207;DHT22;10761;48.532;8.026;2024-02-15T08:04:18;11.60;1.00
21207;DHT22;10761;48.532;8.026;2024-02-15T08:06:44;11.70;1.00
21207;DHT22;10761;48.532;8.026;2024-02-15T08:09:09;11.70;1.00
21207;DHT22;10761;48.532;8.026;2024-02-15T08:11:42;11.80;1.00
21207;DHT22;10761;48.532;8.026;2024-02-15T08:14:07;11.70;1.00
21207;DHT22;10761;48.532;8.026;2024-02-15T08:16:37;11.50;1.00
21207;DHT22;10761;48.532;8.026;2024-02-15T08:19:06;11.40;1.00
21207;DHT22;10761;48.532;8.026;2024-02-15T08:21:33;11.40;1.00
21207;DHT22;10761;48.532;8.026;2024-02-15T08:24:04;11.30;1.00
21207;DHT22;10761;48.532;8.026;2024-02-15T08:26:36;11.20;1.00
21207;DHT22;10761;48.532;8.026;2024-02-15T08:29:03;10.90;1.00
21207;DHT22;10761;48.532;8.026;2024-02-15T08:31:29;10.80;44.60
21207;DHT22;10761;48.532;8.026;2024-02-15T08:33:58;10.70;93.40
21207;DHT22;10761;48.532;8.026;2024-02-15T08:36:23;10.70;99.90
21207;DHT22;10761;48.532;8.026;2024-02-15T08:38:50;10.90;83.30
21207;DHT22;10761;48.532;8.026;2024-02-15T08:41:16;11.10;20.70
21207;DHT22;10761;48.532;8.026;2024-02-15T08:43:44;11.50;1.00
21207;DHT22;10761;48.532;8.026;2024-02-15T08:46:09;11.90;1.00
21207;DHT22;10761;48.532;8.026;2024-02-15T08:48:36;12.20;1.00
21207;DHT22;10761;48.532;8.026;2024-02-15T08:51:02;12.60;1.00
21207;DHT22;10761;48.532;8.026;2024-02-15T08:53:27;12.90;1.00
21207;DHT22;10761;48.532;8.026;2024-02-15T08:55:53;13.30;99.90
21207;DHT22;10761;48.532;8.026;2024-02-15T08:58:19;13.60;99.90
21207;DHT22;10761;48.532;8.026;2024-02-15T09:00:46;13.80;99.90
21207;DHT22;10761;48.532;8.026;2024-02-15T09:03:12;14.00;1.00
21207;DHT22;10761;48.532;8.026;2024-02-15T09:05:41;14.20;1.00
21207;DHT22;10761;48.532;8.026;2024-02-15T09:08:07;14.40;99.90
21207;DHT22;10761;48.532;8.026;2024-02-15T09:10:33;14.40;1.00
21207;DHT22;10761;48.532;8.026;2024-02-15T09:12:58;14.50;99.90
21207;DHT22;10761;48.532;8.026;2024-02-15T09:15:24;14.50;1.00
21207;DHT22;10761;48.532;8.026;2024-02-15T09:17:50;14.60;1.00
21207;DHT22;10761;48.532;8.026;2024-02-15T09:20:17;14.70;1.00
21207;DHT22;10761;48.532;8.026;2024-02-15T09:22:50;14.80;99.90
21207;DHT22;10761;48.532;8.026;2024-02-15T09:25:19;14.80;1.00
21207;DHT22;10761;48.532;8.026;2024-02-15T09:27:45;14.80;1.00
21207;DHT22;10761;48.532;8.026;2024-02-15T09:30:12;14.90;1.00
21207;DHT22;10761;48.532;8.026;2024-02-15T09:32:41;15.00;1.00
21207;DHT22;10761;48.532;8.026;2024-02-15T09:35:08;15.00;99.90
21207;DHT22;10761;48.532;8.026;2024-02-15T09:37:35;15.10;99.90
21207;DHT22;10761;48.532;8.026;2024-02-15T09:40:01;15.30;99.90
21207;DHT22;10761;48.532;8.026;2024-02-15T09:42:32;15.40;1.00
21207;DHT22;10761;48.532;8.026;2024-02-15T09:45:00;15.40;1.00
21207;DHT22;10761;48.532;8.026;2024-02-15T09:47:35;15.40;1.00
21207;DHT22;10761;48.532;8.026;2024-02-15T09:50:02;15.40;1.00
21207;DHT22;10761;48.532;8.026;2024-02-15T09:52:29;15.50;1.00
21207;DHT22;10761;48.532;8.026;2024-02-15T09:54:58;15.60;1.00
21207;DHT22;10761;48.532;8.026;2024-02-15T09:57:26;15.60;1.00
21207;DHT22;10761;48.532;8.026;2024-02-15T09:59:53;15.50;99.90
21207;DHT22;10761;48.532;8.026;2024-02-15T10:02:19;15.50;1.00
21207;DHT22;10761;48.532;8.026;2024-02-15T10:04:46;15.40;99.90
21207;DHT22;10761;48.532;8.026;2024-02-15T10:07:13;15.40;1.00
21207;DHT22;10761;48.532;8.026;2024-02-15T10:09:39;15.30;1.00
21207;DHT22;10761;48.532;8.026;2024-02-15T10:12:08;15.10;99.90
21207;DHT22;10761;48.532;8.026;2024-02-15T10:14:35;15.20;1.00
21207;DHT22;10761;48.532;8.026;2024-02-15T10:17:08;15.20;1.00
21207;DHT22;10761;48.532;8.026;2024-02-15T10:19:39;15.30;1.00
21207;DHT22;10761;48.532;8.026;2024-02-15T10:22:06;15.40;1.00
21207;DHT22;10761;48.532;8.026;2024-02-15T10:24:32;15.50;1.00
21207;DHT22;10761;48.532;8.026;2024-02-15T10:27:02;15.70;1.00
21207;DHT22;10761;48.532;8.026;2024-02-15T10:29:30;15.80;21.40
21207;DHT22;10761;48.532;8.026;2024-02-15T10:32:00;16.10;99.90
21207;DHT22;10761;48.532;8.026;2024-02-15T10:34:26;16.20;99.90
21207;DHT22;10761;48.532;8.026;2024-02-15T10:37:16;16.30;95.00
21207;DHT22;10761;48.532;8.026;2024-02-15T10:39:45;16.40;1.00
21207;DHT22;10761;48.532;8.026;2024-02-15T10:42:13;16.60;1.00
21207;DHT22;10761;48.532;8.026;2024-02-15T10:44:39;16.60;1.00
21207;DHT22;10761;48.532;8.026;2024-02-15T10:47:05;16.60;99.90
21207;DHT22;10761;48.532;8.026;2024-02-15T10:49:33;16.60;1.00
21207;DHT22;10761;48.532;8.026;2024-02-15T10:52:00;16.50;1.00
21207;DHT22;10761;48.532;8.026;2024-02-15T10:54:52;16.70;1.00
21207;DHT22;10761;48.532;8.026;2024-02-15T10:57:26;17.00;1.00
21207;DHT22;10761;48.532;8.026;2024-02-15T10:59:58;17.30;1.00
21207;DHT22;10761;48.532;8.026;2024-02-15T11:02:30;17.10;99.90
21207;DHT22;10761;48.532;8.026;2024-02-15T11:05:01;16.80;99.90
21207;DHT22;10761;48.532;8.026;2024-02-15T11:07:30;16.50;1.00
21207;DHT22;10761;48.532;8.026;2024-02-15T11:09:56;16.30;1.00
21207;DHT22;10761;48.532;8.026;2024-02-15T11:12:23;16.30;1.00
21207;DHT22;10761;48.532;8.026;2024-02-15T11:14:49;16.40;1.00
21207;DHT22;10761;48.532;8.026;2024-02-15T11:17:55;16.60;1.00
21207;DHT22;10761;48.532;8.026;2024-02-15T11:22:58;17.70;22.30
21207;DHT22;10761;48.532;8.026;2024-02-15T11:25:33;17.90;1.00
21207;DHT22;10761;48.532;8.026;2024-02-15T11:30:50;17.90;1.00
21207;DHT22;10761;48.532;8.026;2024-02-15T11:33:33;17.90;1.00
21207;DHT22;10761;48.532;8.026;2024-02-15T11:36:08;18.30;1.00
21207;DHT22;10761;48.532;8.026;2024-02-15T11:38:35;18.40;1.00
21207;DHT22;10761;48.532;8.026;2024-02-15T11:41:04;18.50;1.00
21207;DHT22;10761;48.532;8.026;2024-02-15T11:46:13;18.50;1.00
21207;DHT22;10761;48.532;8.026;2024-02-15T11:48:39;18.50;1.00
21207;DHT22;10761;48.532;8.026;2024-02-15T11:51:05;18.10;1.00
21207;DHT22;10761;48.532;8.026;2024-02-15T11:53:32;17.80;1.00
21207;DHT22;10761;48.532;8.026;2024-02-15T11:56:01;17.80;1.00
21207;DHT22;10761;48.532;8.026;2024-02-15T11:58:28;17.70;1.00
21207;DHT22;10761;48.532;8.026;2024-02-15T12:01:18;17.80;1.00
21207;DHT22;10761;48.532;8.026;2024-02-15T12:04:02;18.00;1.00
21207;DHT22;10761;48.532;8.026;2024-02-15T12:06:47;18.20;1.00
21207;DHT22;10761;48.532;8.026;2024-02-15T12:09:31;18.20;1.00
21207;DHT22;10761;48.532;8.026;2024-02-15T12:12:15;18.30;1.00
21207;DHT22;10761;48.532;8.026;2024-02-15T12:15:03;18.40;1.00
21207;DHT22;10761;48.532;8.026;2024-02-15T12:17:47;18.60;1.00
21207;DHT22;10761;48.532;8.026;2024-02-15T12:20:31;18.50;1.00
21207;DHT22;10761;48.532;8.026;2024-02-15T12:22:57;18.70;1.00
21207;DHT22;10761;48.532;8.026;2024-02-15T12:25:26;18.80;1.00
21207;DHT22;10761;48.532;8.026;2024-02-15T12:27:54;18.60;1.00
21207;DHT22;10761;48.532;8.026;2024-02-15T12:30:20;18.40;1.00
21207;DHT22;10761;48.532;8.026;2024-02-15T12:32:47;18.20;1.00
21207;DHT22;10761;48.532;8.026;2024-02-15T12:35:14;18.20;1.00
21207;DHT22;10761;48.532;8.026;2024-02-15T12:38:00;18.40;1.00
21207;DHT22;10761;48.532;8.026;2024-02-15T12:40:39;18.70;1.00
21207;DHT22;10761;48.532;8.026;2024-02-15T12:43:06;18.60;1.00
21207;DHT22;10761;48.532;8.026;2024-02-15T12:45:36;18.80;1.00
21207;DHT22;10761;48.532;8.026;2024-02-15T12:48:04;19.00;1.00
21207;DHT22;10761;48.532;8.026;2024-02-15T12:50:30;19.40;1.00
21207;DHT22;10761;48.532;8.026;2024-02-15T12:52:56;19.70;1.00
21207;DHT22;10761;48.532;8.026;2024-02-15T12:55:31;20.00;1.00
21207;DHT22;10761;48.532;8.026;2024-02-15T12:58:00;20.10;1.00
21207;DHT22;10761;48.532;8.026;2024-02-15T13:00:32;20.20;1.00
21207;DHT22;10761;48.532;8.026;2024-02-15T13:03:00;20.30;1.00
21207;DHT22;10761;48.532;8.026;2024-02-15T13:05:28;20.20;1.00
21207;DHT22;10761;48.532;8.026;2024-02-15T13:07:55;20.00;1.00
21207;DHT22;10761;48.532;8.026;2024-02-15T13:10:22;20.00;1.00
21207;DHT22;10761;48.532;8.026;2024-02-15T13:12:48;20.00;1.00
21207;DHT22;10761;48.532;8.026;2024-02-15T13:15:15;20.00;1.00
21207;DHT22;10761;48.532;8.026;2024-02-15T13:17:46;19.90;1.00
21207;DHT22;10761;48.532;8.026;2024-02-15T13:20:12;19.70;1.00
21207;DHT22;10761;48.532;8.026;2024-02-15T13:22:40;19.30;1.00
21207;DHT22;10761;48.532;8.026;2024-02-15T13:25:07;19.00;1.00
21207;DHT22;10761;48.532;8.026;2024-02-15T13:27:38;18.90;1.00
21207;DHT22;10761;48.532;8.026;2024-02-15T13:30:07;19.00;1.00
21207;DHT22;10761;48.532;8.026;2024-02-15T13:32:37;18.90;1.00
21207;DHT22;10761;48.532;8.026;2024-02-15T13:35:09;19.00;1.00
21207;DHT22;10761;48.532;8.026;2024-02-15T13:37:48;19.20;1.00
21207;DHT22;10761;48.532;8.026;2024-02-15T13:40:14;19.50;1.00
21207;DHT22;10761;48.532;8.026;2024-02-15T13:42:44;19.90;1.00
21207;DHT22;10761;48.532;8.026;2024-02-15T13:45:24;19.90;1.00
21207;DHT22;10761;48.532;8.026;2024-02-15T13:47:56;19.80;1.00
21207;DHT22;10761;48.532;8.026;2024-02-15T13:50:22;19.20;1.00
21207;DHT22;10761;48.532;8.026;2024-02-15T13:52:49;18.80;1.00
21207;DHT22;10761;48.532;8.026;2024-02-15T13:55:16;18.50;1.00
21207;DHT22;10761;48.532;8.026;2024-02-15T13:57:43;18.40;1.00
21207;DHT22;10761;48.532;8.026;2024-02-15T14:00:10;18.40;1.00
21207;DHT22;10761;48.532;8.026;2024-02-15T14:02:53;18.30;1.00
21207;DHT22;10761;48.532;8.026;2024-02-15T14:05:20;18.20;1.00
21207;DHT22;10761;48.532;8.026;2024-02-15T14:07:47;18.10;1.00
21207;DHT22;10761;48.532;8.026;2024-02-15T14:10:13;18.00;1.00
21207;DHT22;10761;48.532;8.026;2024-02-15T14:12:39;17.80;1.00
21207;DHT22;10761;48.532;8.026;2024-02-15T14:15:05;17.80;1.00
21207;DHT22;10761;48.532;8.026;2024-02-15T14:17:31;17.80;1.00
21207;DHT22;10761;48.532;8.026;2024-02-15T14:19:57;17.90;1.00
21207;DHT22;10761;48.532;8.026;2024-02-15T14:22:23;18.20;1.00
21207;DHT22;10761;48.532;8.026;2024-02-15T14:24:53;18.60;1.00
21207;DHT22;10761;48.532;8.026;2024-02-15T14:27:19;19.10;1.00
21207;DHT22;10761;48.532;8.026;2024-02-15T14:29:44;19.80;1.00
21207;DHT22;10761;48.532;8.026;2024-02-15T14:32:30;20.30;1.00
21207;DHT22;10761;48.532;8.026;2024-02-15T14:35:14;20.50;99.90
21207;DHT22;10761;48.532;8.026;2024-02-15T14:37:42;20.40;99.90
21207;DHT22;10761;48.532;8.026;2024-02-15T14:40:08;20.40;99.90
21207;DHT22;10761;48.532;8.026;2024-02-15T14:42:34;20.10;99.90
21207;DHT22;10761;48.532;8.026;2024-02-15T14:45:01;19.80;99.90
21207;DHT22;10761;48.532;8.026;2024-02-15T14:47:27;19.80;99.90
21207;DHT22;10761;48.532;8.026;2024-02-15T14:49:52;19.60;99.90
21207;DHT22;10761;48.532;8.026;2024-02-15T14:52:18;19.20;1.00
21207;DHT22;10761;48.532;8.026;2024-02-15T14:54:43;18.80;1.00
21207;DHT22;10761;48.532;8.026;2024-02-15T14:57:09;18.60;1.00
21207;DHT22;10761;48.532;8.026;2024-02-15T14:59:34;18.50;1.00
21207;DHT22;10761;48.532;8.026;2024-02-15T15:02:01;18.20;1.00
21207;DHT22;10761;48.532;8.026;2024-02-15T15:04:34;18.00;1.00
21207;DHT22;10761;48.532;8.026;2024-02-15T15:07:20;18.00;1.00
21207;DHT22;10761;48.532;8.026;2024-02-15T15:10:04;17.80;1.00
21207;DHT22;10761;48.532;8.026;2024-02-15T15:13:08;17.60;1.00
21207;DHT22;10761;48.532;8.026;2024-02-15T15:15:35;17.40;1.00
21207;DHT22;10761;48.532;8.026;2024-02-15T15:18:02;17.20;1.00
21207;DHT22;10761;48.532;8.026;2024-02-15T15:20:30;17.00;1.00
21207;DHT22;10761;48.532;8.026;2024-02-15T15:22:55;16.70;1.00
21207;DHT22;10761;48.532;8.026;2024-02-15T15:25:22;16.50;4.70
21207;DHT22;10761;48.532;8.026;2024-02-15T15:27:49;16.40;99.90
21207;DHT22;10761;48.532;8.026;2024-02-15T15:30:16;16.20;1.00
21207;DHT22;10761;48.532;8.026;2024-02-15T15:32:44;16.10;1.00
21207;DHT22;10761;48.532;8.026;2024-02-15T15:35:12;16.00;1.00
21207;DHT22;10761;48.532;8.026;2024-02-15T15:37:38;15.90;1.00
21207;DHT22;10761;48.532;8.026;2024-02-15T15:40:05;15.80;1.00
21207;DHT22;10761;48.532;8.026;2024-02-15T15:42:35;15.70;99.90
21207;DHT22;10761;48.532;8.026;2024-02-15T15:45:01;15.70;99.90
21207;DHT22;10761;48.532;8.026;2024-02-15T15:47:27;15.60;99.90
21207;DHT22;10761;48.532;8.026;2024-02-15T15:49:52;15.50;99.90
21207;DHT22;10761;48.532;8.026;2024-02-15T15:52:26;15.50;99.90
21207;DHT22;10761;48.532;8.026;2024-02-15T15:54:52;15.40;1.00
21207;DHT22;10761;48.532;8.026;2024-02-15T15:57:18;15.30;99.90
21207;DHT22;10761;48.532;8.026;2024-02-15T15:59:45;15.20;1.00
21207;DHT22;10761;48.532;8.026;2024-02-15T16:02:10;15.10;1.00
21207;DHT22;10761;48.532;8.026;2024-02-15T16:04:47;15.10;1.00